sensor_id;sensor_type;location;lat;lon;timestamp;pressure;altitude;pressure_sealevel;temperature;humidity
6413;BME280;3239;48.714;9.472;2022-07-29T00:00:07;98733.53;;;19.10;100.00
6413;BME280;3239;48.714;9.472;2022-07-29T00:02:34;98728.31;;;19.14;100.00
6413;BME280;3239;48.714;9.472;2022-07-29T00:05:00;98715.81;;;19.05;100.00
6413;BME280;3239;48.714;9.472;2022-07-29T00:07:25;98721.38;;;19.05;100.00
6413;BME280;3239;48.714;9.472;2022-07-29T00:09:51;98701.44;;;18.99;100.00
6413;BME280;3239;48.714;9.472;2022-07-29T00:12:22;98701.09;;;18.95;100.00
6413;BME280;3239;48.714;9.472;2022-07-29T00:14:49;98700.53;;;18.97;100.00
6413;BME280;3239;48.714;9.472;2022-07-29T00:17:15;98693.91;;;18.92;100.00
6413;BME280;3239;48.714;9.472;2022-07-29T00:19:41;98689.88;;;18.86;100.00
6413;BME280;3239;48.714;9.472;2022-07-29T00:22:06;98699.78;;;18.96;100.00
6413;BME280;3239;48.714;9.472;2022-07-29T00:24:32;98693.72;;;18.90;100.00
6413;BME280;3239;48.714;9.472;2022-07-29T00:26:58;98696.16;;;18.86;100.00
6413;BME280;3239;48.714;9.472;2022-07-29T00:29:24;98684.47;;;18.88;100.00
6413;BME280;3239;48.714;9.472;2022-07-29T00:31:50;98693.66;;;18.98;100.00
6413;BME280;3239;48.714;9.472;2022-07-29T00:34:16;98694.34;;;18.81;100.00
6413;BME280;3239;48.714;9.472;2022-07-29T00:37:00;98695.91;;;18.50;100.00
6413;BME280;3239;48.714;9.472;2022-07-29T00:39:26;98696.16;;;18.62;100.00
6413;BME280;3239;48.714;9.472;2022-07-29T00:41:52;98704.03;;;18.73;100.00
6413;BME280;3239;48.714;9.472;2022-07-29T00:44:17;98713.25;;;18.51;100.00
6413;BME280;3239;48.714;9.472;2022-07-29T00:46:43;98726.56;;;18.52;100.00
6413;BME280;3239;48.714;9.472;2022-07-29T00:49:09;98736.84;;;18.67;100.00
6413;BME280;3239;48.714;9.472;2022-07-29T00:51:38;98749.09;;;18.64;100.00
6413;BME280;3239;48.714;9.472;2022-07-29T00:54:05;98761.88;;;18.59;100.00
6413;BME280;3239;48.714;9.472;2022-07-29T00:56:32;98760.19;;;18.64;100.00
6413;BME280;3239;48.714;9.472;2022-07-29T00:58:59;98760.47;;;18.75;100.00
6413;BME280;3239;48.714;9.472;2022-07-29T01:01:26;98764.25;;;18.63;100.00
6413;BME280;3239;48.714;9.472;2022-07-29T01:03:52;98755.72;;;18.68;100.00
6413;BME280;3239;48.714;9.472;2022-07-29T01:06:19;98764.03;;;18.68;100.00
6413;BME280;3239;48.714;9.472;2022-07-29T01:08:47;98751.19;;;18.80;100.00
6413;BME280;3239;48.714;9.472;2022-07-29T01:11:15;98755.06;;;18.85;100.00
6413;BME280;3239;48.714;9.472;2022-07-29T01:13:43;98745.41;;;18.86;100.00
6413;BME280;3239;48.714;9.472;2022-07-29T01:16:28;98737.63;;;18.84;100.00
6413;BME280;3239;48.714;9.472;2022-07-29T01:19:07;98730.22;;;18.87;100.00
6413;BME280;3239;48.714;9.472;2022-07-29T01:21:52;98729.31;;;18.84;100.00
6413;BME280;3239;48.714;9.472;2022-07-29T01:30:51;98701.84;;;18.71;100.00
6413;BME280;3239;48.714;9.472;2022-07-29T01:33:20;98691.34;;;18.62;100.00
6413;BME280;3239;48.714;9.472;2022-07-29T01:36:14;98692.97;;;18.65;100.00
6413;BME280;3239;48.714;9.472;2022-07-29T01:38:46;98693.63;;;18.56;100.00
6413;BME280;3239;48.714;9.472;2022-07-29T01:41:17;98688.47;;;18.53;100.00
6413;BME280;3239;48.714;9.472;2022-07-29T01:43:56;98678.53;;;18.42;100.00
6413;BME280;3239;48.714;9.472;2022-07-29T01:46:34;98677.78;;;18.42;100.00
6413;BME280;3239;48.714;9.472;2022-07-29T01:49:14;98674.47;;;18.43;100.00
6413;BME280;3239;48.714;9.472;2022-07-29T01:51:50;98669.56;;;18.34;100.00
6413;BME280;3239;48.714;9.472;2022-07-29T01:54:35;98663.16;;;18.17;100.00
6413;BME280;3239;48.714;9.472;2022-07-29T01:57:04;98669.63;;;18.19;100.00
6413;BME280;3239;48.714;9.472;2022-07-29T01:59:34;98670.72;;;18.16;100.00
6413;BME280;3239;48.714;9.472;2022-07-29T02:02:02;98685.91;;;18.15;100.00
6413;BME280;3239;48.714;9.472;2022-07-29T02:04:29;98674.97;;;18.17;100.00
6413;BME280;3239;48.714;9.472;2022-07-29T02:07:02;98682.38;;;18.15;100.00
6413;BME280;3239;48.714;9.472;2022-07-29T02:09:33;98674.81;;;18.15;100.00
6413;BME280;3239;48.714;9.472;2022-07-29T02:12:00;98679.97;;;18.19;100.00
6413;BME280;3239;48.714;9.472;2022-07-29T02:14:42;98676.06;;;18.22;100.00
6413;BME280;3239;48.714;9.472;2022-07-29T02:17:11;98678.34;;;18.16;100.00
6413;BME280;3239;48.714;9.472;2022-07-29T02:19:38;98672.03;;;18.15;100.00
6413;BME280;3239;48.714;9.472;2022-07-29T02:22:06;98675.88;;;18.20;100.00
6413;BME280;3239;48.714;9.472;2022-07-29T02:24:34;98678.59;;;18.27;100.00
6413;BME280;3239;48.714;9.472;2022-07-29T02:27:02;98664.22;;;18.21;100.00
6413;BME280;3239;48.714;9.472;2022-07-29T02:29:30;98661.63;;;18.23;100.00
6413;BME280;3239;48.714;9.472;2022-07-29T02:31:57;98653.00;;;18.12;100.00
6413;BME280;3239;48.714;9.472;2022-07-29T02:34:25;98654.00;;;17.99;100.00
6413;BME280;3239;48.714;9.472;2022-07-29T02:36:52;98662.72;;;17.96;100.00
6413;BME280;3239;48.714;9.472;2022-07-29T02:39:21;98662.72;;;17.96;100.00
6413;BME280;3239;48.714;9.472;2022-07-29T02:41:57;98665.28;;;17.94;100.00
6413;BME280;3239;48.714;9.472;2022-07-29T02:44:25;98666.59;;;17.93;100.00
6413;BME280;3239;48.714;9.472;2022-07-29T02:47:20;98675.66;;;17.93;100.00
6413;BME280;3239;48.714;9.472;2022-07-29T02:50:00;98670.50;;;17.90;100.00
6413;BME280;3239;48.714;9.472;2022-07-29T02:52:45;98672.19;;;17.85;100.00
6413;BME280;3239;48.714;9.472;2022-07-29T02:55:37;98672.38;;;17.87;100.00
6413;BME280;3239;48.714;9.472;2022-07-29T02:58:40;98671.47;;;17.85;100.00
6413;BME280;3239;48.714;9.472;2022-07-29T03:01:22;98672.00;;;17.83;100.00
6413;BME280;3239;48.714;9.472;2022-07-29T03:03:51;98667.06;;;17.74;100.00
6413;BME280;3239;48.714;9.472;2022-07-29T03:06:20;98663.78;;;17.61;100.00
6413;BME280;3239;48.714;9.472;2022-07-29T03:08:47;98665.44;;;17.64;100.00
6413;BME280;3239;48.714;9.472;2022-07-29T03:11:13;98671.91;;;17.66;100.00
6413;BME280;3239;48.714;9.472;2022-07-29T03:13:40;98666.16;;;17.64;100.00
6413;BME280;3239;48.714;9.472;2022-07-29T03:16:08;98663.63;;;17.59;100.00
6413;BME280;3239;48.714;9.472;2022-07-29T03:18:35;98663.41;;;17.64;100.00
6413;BME280;3239;48.714;9.472;2022-07-29T03:21:02;98662.31;;;17.60;100.00
6413;BME280;3239;48.714;9.472;2022-07-29T03:23:28;98666.59;;;17.53;100.00
6413;BME280;3239;48.714;9.472;2022-07-29T03:25:55;98670.28;;;17.56;100.00
6413;BME280;3239;48.714;9.472;2022-07-29T03:28:21;98662.16;;;17.58;100.00
6413;BME280;3239;48.714;9.472;2022-07-29T03:30:48;98659.03;;;17.54;100.00
6413;BME280;3239;48.714;9.472;2022-07-29T03:33:14;98652.94;;;17.48;100.00
6413;BME280;3239;48.714;9.472;2022-07-29T03:35:41;98653.50;;;17.46;100.00
6413;BME280;3239;48.714;9.472;2022-07-29T03:38:07;98655.88;;;17.50;100.00
6413;BME280;3239;48.714;9.472;2022-07-29T03:40:44;98656.28;;;17.46;100.00
6413;BME280;3239;48.714;9.472;2022-07-29T03:43:13;98662.19;;;17.43;100.00
6413;BME280;3239;48.714;9.472;2022-07-29T03:45:44;98658.28;;;17.46;100.00
6413;BME280;3239;48.714;9.472;2022-07-29T03:48:15;98653.13;;;17.35;100.00
6413;BME280;3239;48.714;9.472;2022-07-29T03:50:42;98651.28;;;17.37;100.00
6413;BME280;3239;48.714;9.472;2022-07-29T03:53:08;98656.09;;;17.37;100.00
6413;BME280;3239;48.714;9.472;2022-07-29T03:55:41;98650.19;;;17.40;100.00
6413;BME280;3239;48.714;9.472;2022-07-29T03:58:08;98658.50;;;17.40;100.00
6413;BME280;3239;48.714;9.472;2022-07-29T04:00:35;98658.50;;;17.33;100.00
6413;BME280;3239;48.714;9.472;2022-07-29T04:03:02;98667.19;;;17.37;100.00
6413;BME280;3239;48.714;9.472;2022-07-29T04:05:29;98665.34;;;17.39;100.00
6413;BME280;3239;48.714;9.472;2022-07-29T04:07:54;98664.97;;;17.35;100.00
6413;BME280;3239;48.714;9.472;2022-07-29T04:10:20;98672.72;;;17.37;100.00
6413;BME280;3239;48.714;9.472;2022-07-29T04:12:46;98671.06;;;17.41;100.00
6413;BME280;3239;48.714;9.472;2022-07-29T04:15:12;98664.22;;;17.42;100.00
6413;BME280;3239;48.714;9.472;2022-07-29T04:17:38;98666.97;;;17.50;100.00
6413;BME280;3239;48.714;9.472;2022-07-29T04:20:04;98668.81;;;17.47;100.00
6413;BME280;3239;48.714;9.472;2022-07-29T04:22:30;98667.53;;;17.48;100.00
6413;BME280;3239;48.714;9.472;2022-07-29T04:24:56;98660.34;;;17.45;100.00
6413;BME280;3239;48.714;9.472;2022-07-29T04:27:22;98661.81;;;17.46;100.00
6413;BME280;3239;48.714;9.472;2022-07-29T04:29:47;98667.13;;;17.52;100.00
6413;BME280;3239;48.714;9.472;2022-07-29T04:32:13;98664.72;;;17.56;100.00
6413;BME280;3239;48.714;9.472;2022-07-29T04:34:39;98665.13;;;17.52;100.00
6413;BME280;3239;48.714;9.472;2022-07-29T04:37:04;98662.34;;;17.52;100.00
6413;BME280;3239;48.714;9.472;2022-07-29T04:39:30;98664.34;;;17.59;100.00
6413;BME280;3239;48.714;9.472;2022-07-29T04:41:56;98669.31;;;17.61;100.00
6413;BME280;3239;48.714;9.472;2022-07-29T04:44:22;98669.69;;;17.65;100.00
6413;BME280;3239;48.714;9.472;2022-07-29T04:46:48;98668.78;;;17.62;100.00
6413;BME280;3239;48.714;9.472;2022-07-29T04:49:13;98665.78;;;17.68;100.00
6413;BME280;3239;48.714;9.472;2022-07-29T04:51:39;98657.75;;;17.47;100.00
6413;BME280;3239;48.714;9.472;2022-07-29T04:54:05;98653.53;;;17.39;100.00
6413;BME280;3239;48.714;9.472;2022-07-29T04:56:31;98656.66;;;17.35;100.00
6413;BME280;3239;48.714;9.472;2022-07-29T04:58:57;98665.13;;;17.37;100.00
6413;BME280;3239;48.714;9.472;2022-07-29T05:01:23;98683.25;;;17.38;100.00
6413;BME280;3239;48.714;9.472;2022-07-29T05:03:49;98688.22;;;17.32;100.00
6413;BME280;3239;48.714;9.472;2022-07-29T05:06:14;98686.97;;;17.18;100.00
6413;BME280;3239;48.714;9.472;2022-07-29T05:08:40;98689.94;;;17.13;100.00
6413;BME280;3239;48.714;9.472;2022-07-29T05:11:06;98689.56;;;17.01;100.00
6413;BME280;3239;48.714;9.472;2022-07-29T05:13:32;98701.38;;;17.09;100.00
6413;BME280;3239;48.714;9.472;2022-07-29T05:15:58;98715.00;;;17.22;100.00
6413;BME280;3239;48.714;9.472;2022-07-29T05:18:27;98729.59;;;17.45;100.00
6413;BME280;3239;48.714;9.472;2022-07-29T05:20:53;98727.34;;;17.59;100.00
6413;BME280;3239;48.714;9.472;2022-07-29T05:23:19;98732.50;;;17.70;100.00
6413;BME280;3239;48.714;9.472;2022-07-29T05:25:45;98733.97;;;17.71;100.00
6413;BME280;3239;48.714;9.472;2022-07-29T05:28:12;98734.72;;;17.64;100.00
6413;BME280;3239;48.714;9.472;2022-07-29T05:30:38;98723.66;;;17.56;100.00
6413;BME280;3239;48.714;9.472;2022-07-29T05:33:04;98720.00;;;17.39;100.00
6413;BME280;3239;48.714;9.472;2022-07-29T05:35:29;98729.59;;;17.45;100.00
6413;BME280;3239;48.714;9.472;2022-07-29T05:37:55;98746.69;;;17.81;100.00
6413;BME280;3239;48.714;9.472;2022-07-29T05:40:21;98748.97;;;18.07;100.00
6413;BME280;3239;48.714;9.472;2022-07-29T05:42:47;98750.78;;;18.20;100.00
6413;BME280;3239;48.714;9.472;2022-07-29T05:45:12;98744.22;;;18.40;100.00
6413;BME280;3239;48.714;9.472;2022-07-29T05:47:38;98735.06;;;18.54;100.00
6413;BME280;3239;48.714;9.472;2022-07-29T05:50:04;98722.69;;;18.55;100.00
6413;BME280;3239;48.714;9.472;2022-07-29T05:52:31;98705.94;;;18.38;100.00
6413;BME280;3239;48.714;9.472;2022-07-29T05:54:56;98706.59;;;18.54;100.00
6413;BME280;3239;48.714;9.472;2022-07-29T05:57:23;98707.91;;;18.77;100.00
6413;BME280;3239;48.714;9.472;2022-07-29T05:59:50;98707.88;;;19.02;100.00
6413;BME280;3239;48.714;9.472;2022-07-29T06:02:16;98697.72;;;19.21;100.00
6413;BME280;3239;48.714;9.472;2022-07-29T06:04:43;98699.13;;;19.47;100.00
6413;BME280;3239;48.714;9.472;2022-07-29T06:07:09;98662.63;;;19.50;100.00
6413;BME280;3239;48.714;9.472;2022-07-29T06:09:35;98654.84;;;19.32;100.00
6413;BME280;3239;48.714;9.472;2022-07-29T06:12:01;98664.97;;;19.37;100.00
6413;BME280;3239;48.714;9.472;2022-07-29T06:14:27;98653.84;;;19.37;100.00
6413;BME280;3239;48.714;9.472;2022-07-29T06:16:54;98639.47;;;19.48;100.00
6413;BME280;3239;48.714;9.472;2022-07-29T06:19:20;98624.19;;;19.56;100.00
6413;BME280;3239;48.714;9.472;2022-07-29T06:21:46;98605.38;;;19.47;100.00
6413;BME280;3239;48.714;9.472;2022-07-29T06:24:13;98588.22;;;19.41;100.00
6413;BME280;3239;48.714;9.472;2022-07-29T06:26:40;98569.09;;;19.45;100.00
6413;BME280;3239;48.714;9.472;2022-07-29T06:29:07;98572.16;;;19.66;100.00
6413;BME280;3239;48.714;9.472;2022-07-29T06:31:33;98582.34;;;19.81;100.00
6413;BME280;3239;48.714;9.472;2022-07-29T06:33:58;98549.28;;;19.58;100.00
6413;BME280;3239;48.714;9.472;2022-07-29T06:36:24;98544.44;;;19.85;100.00
6413;BME280;3239;48.714;9.472;2022-07-29T06:38:50;98531.47;;;19.97;100.00
6413;BME280;3239;48.714;9.472;2022-07-29T06:41:16;98513.63;;;20.46;100.00
6413;BME280;3239;48.714;9.472;2022-07-29T06:43:44;98487.59;;;20.79;100.00
6413;BME280;3239;48.714;9.472;2022-07-29T06:46:14;98455.91;;;20.56;100.00
6413;BME280;3239;48.714;9.472;2022-07-29T06:48:43;98443.59;;;20.78;100.00
6413;BME280;3239;48.714;9.472;2022-07-29T06:51:10;98429.97;;;21.10;100.00
6413;BME280;3239;48.714;9.472;2022-07-29T06:53:38;98411.75;;;21.68;100.00
6413;BME280;3239;48.714;9.472;2022-07-29T06:56:06;98359.88;;;22.38;100.00
6413;BME280;3239;48.714;9.472;2022-07-29T06:58:34;98307.59;;;22.82;100.00
6413;BME280;3239;48.714;9.472;2022-07-29T07:01:03;98275.47;;;22.49;100.00
6413;BME280;3239;48.714;9.472;2022-07-29T07:03:30;98261.72;;;22.41;100.00
6413;BME280;3239;48.714;9.472;2022-07-29T07:05:56;98271.31;;;22.17;100.00
6413;BME280;3239;48.714;9.472;2022-07-29T07:08:22;98288.88;;;22.73;100.00
6413;BME280;3239;48.714;9.472;2022-07-29T07:10:50;98245.69;;;23.20;100.00
6413;BME280;3239;48.714;9.472;2022-07-29T07:13:16;98233.88;;;23.33;100.00
6413;BME280;3239;48.714;9.472;2022-07-29T07:15:44;98223.00;;;23.62;100.00
6413;BME280;3239;48.714;9.472;2022-07-29T07:18:10;98206.63;;;23.82;100.00
6413;BME280;3239;48.714;9.472;2022-07-29T07:20:37;98191.34;;;24.08;100.00
6413;BME280;3239;48.714;9.472;2022-07-29T07:23:03;98177.72;;;24.27;100.00
6413;BME280;3239;48.714;9.472;2022-07-29T07:25:30;98165.69;;;24.25;100.00
6413;BME280;3239;48.714;9.472;2022-07-29T07:27:56;98159.97;;;24.23;100.00
6413;BME280;3239;48.714;9.472;2022-07-29T07:30:22;98164.91;;;23.49;100.00
6413;BME280;3239;48.714;9.472;2022-07-29T07:32:48;98189.03;;;23.68;100.00
6413;BME280;3239;48.714;9.472;2022-07-29T07:35:14;98176.56;;;23.82;100.00
6413;BME280;3239;48.714;9.472;2022-07-29T07:37:40;98208.19;;;24.21;100.00
6413;BME280;3239;48.714;9.472;2022-07-29T07:40:07;98183.97;;;24.39;100.00
6413;BME280;3239;48.714;9.472;2022-07-29T07:42:33;98162.09;;;24.11;100.00
6413;BME280;3239;48.714;9.472;2022-07-29T07:44:59;98148.94;;;24.13;100.00
6413;BME280;3239;48.714;9.472;2022-07-29T07:47:25;98160.84;;;24.00;100.00
6413;BME280;3239;48.714;9.472;2022-07-29T07:49:52;98147.25;;;24.47;100.00
6413;BME280;3239;48.714;9.472;2022-07-29T07:52:20;98152.91;;;24.22;100.00
6413;BME280;3239;48.714;9.472;2022-07-29T07:54:48;98167.16;;;23.28;100.00
6413;BME280;3239;48.714;9.472;2022-07-29T07:57:15;98176.69;;;23.84;100.00
6413;BME280;3239;48.714;9.472;2022-07-29T07:59:41;98162.03;;;24.22;100.00
6413;BME280;3239;48.714;9.472;2022-07-29T08:02:08;98140.66;;;25.21;100.00
6413;BME280;3239;48.714;9.472;2022-07-29T08:04:35;98098.34;;;25.44;100.00
6413;BME280;3239;48.714;9.472;2022-07-29T08:07:01;98076.03;;;25.91;100.00
6413;BME280;3239;48.714;9.472;2022-07-29T08:09:28;98078.94;;;25.93;100.00
6413;BME280;3239;48.714;9.472;2022-07-29T08:11:55;98067.59;;;27.17;100.00
6413;BME280;3239;48.714;9.472;2022-07-29T08:14:21;98045.75;;;26.51;100.00
6413;BME280;3239;48.714;9.472;2022-07-29T08:16:47;98055.41;;;26.62;100.00
6413;BME280;3239;48.714;9.472;2022-07-29T08:19:13;98065.50;;;26.84;100.00
6413;BME280;3239;48.714;9.472;2022-07-29T08:21:39;98062.31;;;27.25;100.00
6413;BME280;3239;48.714;9.472;2022-07-29T08:24:06;98044.88;;;27.13;100.00
6413;BME280;3239;48.714;9.472;2022-07-29T08:26:50;98057.47;;;25.26;100.00
6413;BME280;3239;48.714;9.472;2022-07-29T08:29:16;98065.00;;;26.41;100.00
6413;BME280;3239;48.714;9.472;2022-07-29T08:31:42;98067.28;;;26.93;100.00
6413;BME280;3239;48.714;9.472;2022-07-29T08:34:08;98063.69;;;28.13;100.00
6413;BME280;3239;48.714;9.472;2022-07-29T08:36:34;98065.28;;;27.99;100.00
6413;BME280;3239;48.714;9.472;2022-07-29T08:39:02;98058.22;;;28.37;100.00
6413;BME280;3239;48.714;9.472;2022-07-29T08:41:28;98040.41;;;27.93;100.00
6413;BME280;3239;48.714;9.472;2022-07-29T08:43:54;98032.06;;;28.73;100.00
6413;BME280;3239;48.714;9.472;2022-07-29T08:46:20;98040.91;;;28.64;100.00
6413;BME280;3239;48.714;9.472;2022-07-29T08:48:48;98040.09;;;28.61;100.00
6413;BME280;3239;48.714;9.472;2022-07-29T08:51:20;98031.97;;;27.76;100.00
6413;BME280;3239;48.714;9.472;2022-07-29T08:53:48;98037.41;;;26.69;100.00
6413;BME280;3239;48.714;9.472;2022-07-29T08:56:16;98038.69;;;25.88;100.00
6413;BME280;3239;48.714;9.472;2022-07-29T08:58:44;98048.09;;;26.88;100.00
6413;BME280;3239;48.714;9.472;2022-07-29T09:01:11;98038.81;;;26.52;100.00
6413;BME280;3239;48.714;9.472;2022-07-29T09:03:38;98041.22;;;26.75;100.00
6413;BME280;3239;48.714;9.472;2022-07-29T09:06:05;98027.50;;;28.06;100.00
6413;BME280;3239;48.714;9.472;2022-07-29T09:08:32;98030.41;;;28.27;100.00
6413;BME280;3239;48.714;9.472;2022-07-29T09:11:00;98039.13;;;27.61;100.00
6413;BME280;3239;48.714;9.472;2022-07-29T09:13:27;98028.06;;;26.80;100.00
6413;BME280;3239;48.714;9.472;2022-07-29T09:15:53;98042.16;;;26.97;100.00
6413;BME280;3239;48.714;9.472;2022-07-29T09:18:36;98035.28;;;27.35;100.00
6413;BME280;3239;48.714;9.472;2022-07-29T09:21:04;98035.06;;;27.64;100.00
6413;BME280;3239;48.714;9.472;2022-07-29T09:24:10;98042.00;;;27.11;100.00
6413;BME280;3239;48.714;9.472;2022-07-29T09:26:42;98049.34;;;27.18;100.00
6413;BME280;3239;48.714;9.472;2022-07-29T09:29:12;98038.50;;;27.45;100.00
6413;BME280;3239;48.714;9.472;2022-07-29T09:31:42;98037.53;;;27.91;100.00
6413;BME280;3239;48.714;9.472;2022-07-29T09:34:10;98031.19;;;28.10;100.00
6413;BME280;3239;48.714;9.472;2022-07-29T09:36:41;98036.75;;;28.08;100.00
6413;BME280;3239;48.714;9.472;2022-07-29T09:39:08;98030.84;;;29.41;100.00
6413;BME280;3239;48.714;9.472;2022-07-29T09:41:55;98014.00;;;29.90;100.00
6413;BME280;3239;48.714;9.472;2022-07-29T09:44:22;98016.97;;;29.49;100.00
6413;BME280;3239;48.714;9.472;2022-07-29T09:47:02;98011.72;;;29.39;95.49
6413;BME280;3239;48.714;9.472;2022-07-29T09:49:32;98011.78;;;27.64;100.00
6413;BME280;3239;48.714;9.472;2022-07-29T09:52:08;98012.53;;;28.99;100.00
6413;BME280;3239;48.714;9.472;2022-07-29T09:54:35;97999.03;;;30.32;95.77
6413;BME280;3239;48.714;9.472;2022-07-29T09:57:07;97986.66;;;29.28;85.57
6413;BME280;3239;48.714;9.472;2022-07-29T09:59:35;97992.94;;;27.86;91.79
6413;BME280;3239;48.714;9.472;2022-07-29T10:02:01;97983.81;;;28.85;94.07
6413;BME280;3239;48.714;9.472;2022-07-29T10:04:41;97981.38;;;28.75;95.40
6413;BME280;3239;48.714;9.472;2022-07-29T10:07:07;97985.72;;;27.26;100.00
6413;BME280;3239;48.714;9.472;2022-07-29T10:09:33;97992.53;;;27.21;100.00
6413;BME280;3239;48.714;9.472;2022-07-29T10:12:11;98007.34;;;28.13;100.00
6413;BME280;3239;48.714;9.472;2022-07-29T10:14:40;97998.69;;;28.27;100.00
6413;BME280;3239;48.714;9.472;2022-07-29T10:17:07;97992.75;;;27.99;100.00
6413;BME280;3239;48.714;9.472;2022-07-29T10:19:35;97999.25;;;27.67;100.00
6413;BME280;3239;48.714;9.472;2022-07-29T10:22:05;97985.44;;;27.03;100.00
6413;BME280;3239;48.714;9.472;2022-07-29T10:24:32;97981.94;;;27.74;100.00
6413;BME280;3239;48.714;9.472;2022-07-29T10:27:01;97985.88;;;27.85;100.00
6413;BME280;3239;48.714;9.472;2022-07-29T10:29:28;97985.53;;;28.33;100.00
6413;BME280;3239;48.714;9.472;2022-07-29T10:32:35;97979.13;;;28.11;100.00
6413;BME280;3239;48.714;9.472;2022-07-29T10:44:13;97964.38;;;32.09;73.13
6413;BME280;3239;48.714;9.472;2022-07-29T10:46:40;97964.25;;;32.03;76.39
6413;BME280;3239;48.714;9.472;2022-07-29T10:49:18;97968.69;;;31.76;73.14
6413;BME280;3239;48.714;9.472;2022-07-29T10:51:55;97953.78;;;30.85;78.38
6413;BME280;3239;48.714;9.472;2022-07-29T11:00:30;97950.94;;;31.44;75.19
6413;BME280;3239;48.714;9.472;2022-07-29T11:05:13;97952.81;;;28.05;97.97
6413;BME280;3239;48.714;9.472;2022-07-29T11:10:45;97957.88;;;27.34;100.00
6413;BME280;3239;48.714;9.472;2022-07-29T11:13:11;97962.13;;;27.53;100.00
6413;BME280;3239;48.714;9.472;2022-07-29T11:15:57;97965.09;;;28.13;100.00
6413;BME280;3239;48.714;9.472;2022-07-29T11:18:23;97957.00;;;28.04;100.00
6413;BME280;3239;48.714;9.472;2022-07-29T11:20:51;97953.97;;;28.37;100.00
6413;BME280;3239;48.714;9.472;2022-07-29T11:23:20;97948.69;;;28.88;100.00
6413;BME280;3239;48.714;9.472;2022-07-29T11:28:53;97967.00;;;28.67;100.00
6413;BME280;3239;48.714;9.472;2022-07-29T11:31:37;97979.41;;;28.39;100.00
6413;BME280;3239;48.714;9.472;2022-07-29T11:34:29;97977.75;;;28.12;100.00
6413;BME280;3239;48.714;9.472;2022-07-29T11:45:17;98026.88;;;27.02;100.00
6413;BME280;3239;48.714;9.472;2022-07-29T11:47:50;97997.56;;;25.64;100.00
6413;BME280;3239;48.714;9.472;2022-07-29T11:50:37;98030.56;;;25.21;100.00
6413;BME280;3239;48.714;9.472;2022-07-29T11:53:11;98046.69;;;23.74;100.00
6413;BME280;3239;48.714;9.472;2022-07-29T11:55:41;98054.69;;;23.29;100.00
6413;BME280;3239;48.714;9.472;2022-07-29T11:58:08;98049.34;;;23.33;100.00
6413;BME280;3239;48.714;9.472;2022-07-29T12:00:38;98057.50;;;22.81;100.00
6413;BME280;3239;48.714;9.472;2022-07-29T12:03:07;98083.38;;;22.24;100.00
6413;BME280;3239;48.714;9.472;2022-07-29T12:05:38;98108.84;;;21.63;100.00
6413;BME280;3239;48.714;9.472;2022-07-29T12:08:23;98079.84;;;22.12;100.00
6413;BME280;3239;48.714;9.472;2022-07-29T12:10:52;98120.75;;;22.31;100.00
6413;BME280;3239;48.714;9.472;2022-07-29T12:13:20;98167.78;;;22.46;100.00
6413;BME280;3239;48.714;9.472;2022-07-29T12:15:56;98200.41;;;22.43;100.00
6413;BME280;3239;48.714;9.472;2022-07-29T12:18:24;98195.59;;;22.11;100.00
6413;BME280;3239;48.714;9.472;2022-07-29T12:21:01;98218.94;;;22.27;100.00
6413;BME280;3239;48.714;9.472;2022-07-29T12:23:31;98219.56;;;22.37;100.00
6413;BME280;3239;48.714;9.472;2022-07-29T12:25:58;98233.47;;;22.58;100.00
6413;BME280;3239;48.714;9.472;2022-07-29T12:28:25;98239.56;;;22.55;100.00
6413;BME280;3239;48.714;9.472;2022-07-29T12:30:51;98245.66;;;22.42;100.00
6413;BME280;3239;48.714;9.472;2022-07-29T12:33:28;98244.09;;;22.94;100.00
6413;BME280;3239;48.714;9.472;2022-07-29T12:35:59;98255.50;;;22.87;100.00
6413;BME280;3239;48.714;9.472;2022-07-29T12:38:25;98274.63;;;22.46;100.00
6413;BME280;3239;48.714;9.472;2022-07-29T12:40:53;98311.88;;;22.83;100.00
6413;BME280;3239;48.714;9.472;2022-07-29T12:43:22;98320.06;;;23.37;100.00
6413;BME280;3239;48.714;9.472;2022-07-29T12:45:54;98283.13;;;23.98;100.00
6413;BME280;3239;48.714;9.472;2022-07-29T12:48:34;98222.31;;;23.87;100.00
6413;BME280;3239;48.714;9.472;2022-07-29T12:51:02;98254.63;;;23.53;100.00
6413;BME280;3239;48.714;9.472;2022-07-29T12:53:28;98293.63;;;23.86;100.00
6413;BME280;3239;48.714;9.472;2022-07-29T12:55:56;98360.31;;;23.32;100.00
6413;BME280;3239;48.714;9.472;2022-07-29T13:01:09;98300.03;;;23.29;100.00
6413;BME280;3239;48.714;9.472;2022-07-29T13:03:51;98267.63;;;22.68;100.00
6413;BME280;3239;48.714;9.472;2022-07-29T13:06:33;98260.81;;;22.71;100.00
6413;BME280;3239;48.714;9.472;2022-07-29T13:09:15;98289.59;;;22.74;100.00
6413;BME280;3239;48.714;9.472;2022-07-29T13:11:47;98271.97;;;22.60;100.00
6413;BME280;3239;48.714;9.472;2022-07-29T13:22:18;98370.25;;;21.84;100.00
6413;BME280;3239;48.714;9.472;2022-07-29T13:24:55;98397.13;;;22.10;100.00
6413;BME280;3239;48.714;9.472;2022-07-29T13:27:33;98388.06;;;22.00;100.00
6413;BME280;3239;48.714;9.472;2022-07-29T13:30:02;98391.03;;;21.71;100.00
6413;BME280;3239;48.714;9.472;2022-07-29T13:32:30;98403.94;;;21.27;100.00
6413;BME280;3239;48.714;9.472;2022-07-29T13:34:59;98397.69;;;21.57;100.00
6413;BME280;3239;48.714;9.472;2022-07-29T13:37:25;98403.06;;;21.74;100.00
6413;BME280;3239;48.714;9.472;2022-07-29T13:39:52;98390.53;;;21.84;100.00
6413;BME280;3239;48.714;9.472;2022-07-29T13:42:19;98399.03;;;21.86;100.00
6413;BME280;3239;48.714;9.472;2022-07-29T13:44:45;98401.69;;;21.84;100.00
6413;BME280;3239;48.714;9.472;2022-07-29T13:47:11;98406.47;;;21.72;100.00
6413;BME280;3239;48.714;9.472;2022-07-29T13:49:37;98423.00;;;21.80;100.00
6413;BME280;3239;48.714;9.472;2022-07-29T13:52:03;98438.75;;;21.96;100.00
6413;BME280;3239;48.714;9.472;2022-07-29T13:54:32;98435.47;;;22.09;100.00
6413;BME280;3239;48.714;9.472;2022-07-29T13:56:58;98424.38;;;22.21;100.00
6413;BME280;3239;48.714;9.472;2022-07-29T13:59:24;98422.88;;;21.99;100.00
6413;BME280;3239;48.714;9.472;2022-07-29T14:01:50;98420.38;;;22.24;100.00
6413;BME280;3239;48.714;9.472;2022-07-29T14:04:16;98403.25;;;22.18;100.00
6413;BME280;3239;48.714;9.472;2022-07-29T14:06:42;98409.03;;;22.10;100.00
6413;BME280;3239;48.714;9.472;2022-07-29T14:09:08;98410.00;;;22.36;100.00
6413;BME280;3239;48.714;9.472;2022-07-29T14:11:36;98368.53;;;22.00;100.00